createdAt,value
2018-11-23T00:02:50.420Z,0.00
2018-11-23T00:12:51.069Z,0.01
2018-11-23T00:22:50.509Z,0.00
2018-11-23T00:32:50.415Z,0.00
2018-11-23T00:42:50.483Z,0.00
2018-11-23T00:52:50.421Z,0.00
2018-11-23T01:02:50.334Z,0.00
2018-11-23T01:12:50.492Z,0.00
2018-11-23T01:22:50.492Z,0.00
2018-11-23T01:32:50.423Z,0.00
2018-11-23T01:42:50.391Z,0.00
2018-11-23T01:52:50.569Z,0.10
2018-11-23T02:02:50.453Z,0.00
2018-11-23T02:12:50.488Z,0.04
2018-11-23T02:22:50.477Z,0.17
2018-11-23T02:32:50.443Z,0.33
2018-11-23T02:42:50.415Z,0.13
2018-11-23T02:52:50.361Z,0.00
2018-11-23T03:02:50.430Z,0.01
2018-11-23T03:12:50.430Z,0.00
2018-11-23T03:22:50.374Z,0.01
2018-11-23T03:32:50.447Z,0.00
2018-11-23T03:42:50.433Z,0.00
2018-11-23T03:52:50.414Z,0.00
2018-11-23T04:02:50.419Z,0.00
2018-11-23T04:12:50.458Z,0.00
2018-11-23T04:22:50.434Z,0.00
2018-11-23T04:32:50.368Z,0.00
2018-11-23T04:42:50.410Z,0.00
2018-11-23T04:52:57.642Z,0.05
2018-11-23T05:02:50.423Z,0.01
2018-11-23T05:12:50.474Z,0.00
2018-11-23T05:22:50.395Z,0.08
2018-11-23T05:32:50.380Z,0.16
2018-11-23T05:42:50.407Z,0.00
2018-11-23T05:52:50.325Z,0.00
2018-11-23T06:02:50.389Z,0.00
2018-11-23T06:12:50.287Z,0.04
2018-11-23T06:22:50.351Z,0.00
2018-11-23T06:32:50.424Z,0.01
2018-11-23T06:42:50.384Z,0.01
2018-11-23T06:52:50.430Z,0.01
2018-11-23T07:02:50.331Z,0.00
2018-11-23T07:12:50.343Z,0.09
2018-11-23T07:22:50.352Z,0.11
2018-11-23T07:32:50.368Z,0.01
2018-11-23T07:42:50.419Z,0.00
2018-11-23T07:52:50.399Z,0.00
2018-11-23T08:02:50.458Z,0.07
2018-11-23T08:12:51.028Z,0.28
2018-11-23T08:22:50.337Z,0.55
2018-11-23T08:32:50.964Z,0.81
2018-11-23T08:42:50.337Z,0.57
2018-11-23T08:52:50.339Z,0.74
2018-11-23T09:02:50.384Z,0.98
2018-11-23T09:12:50.379Z,0.77
2018-11-23T09:22:50.365Z,0.16
2018-11-23T09:32:50.429Z,0.04
2018-11-23T09:42:50.396Z,0.10
2018-11-23T09:52:50.325Z,0.19
2018-11-23T10:02:50.420Z,0.97
2018-11-23T10:12:50.533Z,0.65
2018-11-23T10:22:51.251Z,0.39
2018-11-23T10:32:50.364Z,0.39
2018-11-23T10:42:50.362Z,0.48
2018-11-23T10:52:50.520Z,0.54
2018-11-23T11:02:51.233Z,0.50
2018-11-23T11:12:51.204Z,1.29
2018-11-23T11:22:50.377Z,0.98
2018-11-23T11:32:50.418Z,0.78
2018-11-23T11:42:51.165Z,1.07
2018-11-23T11:52:50.468Z,1.07
2018-11-23T12:02:50.380Z,1.17
2018-11-23T12:12:50.580Z,1.09
2018-11-23T12:22:50.375Z,1.18
2018-11-23T12:32:51.437Z,0.82
2018-11-23T12:42:50.644Z,0.86
2018-11-23T12:52:50.430Z,1.62
2018-11-23T13:02:50.448Z,0.97
2018-11-23T13:12:50.902Z,0.86
2018-11-23T13:22:50.461Z,0.78
2018-11-23T13:32:50.388Z,0.74
2018-11-23T13:42:51.449Z,1.18
2018-11-23T13:52:50.443Z,1.15
2018-11-23T14:02:50.499Z,0.74
2018-11-23T14:12:51.095Z,0.74
2018-11-23T14:22:51.095Z,0.53
2018-11-23T14:32:50.430Z,0.52
2018-11-23T14:42:50.539Z,0.29
2018-11-23T14:52:50.485Z,0.23
2018-11-23T15:02:50.456Z,0.33
2018-11-23T15:12:50.441Z,0.48
2018-11-23T15:22:50.392Z,0.22
2018-11-23T15:32:51.116Z,0.12
2018-11-23T15:42:57.699Z,0.00
2018-11-23T15:52:50.500Z,0.00
2018-11-23T16:02:50.437Z,0.01
2018-11-23T16:12:50.499Z,0.07
2018-11-23T16:22:50.484Z,0.06
2018-11-23T16:32:50.424Z,0.01
2018-11-23T16:42:50.491Z,0.24
2018-11-23T16:52:50.457Z,0.35
2018-11-23T17:02:50.375Z,0.68
2018-11-23T17:12:50.470Z,0.68
2018-11-23T17:22:50.458Z,0.51
2018-11-23T17:32:50.443Z,0.31
2018-11-23T17:42:50.352Z,0.07
2018-11-23T17:52:50.413Z,0.02
2018-11-23T18:02:50.435Z,0.15
2018-11-23T18:12:50.439Z,0.01
2018-11-23T18:22:50.420Z,0.00
2018-11-23T18:32:50.392Z,0.00
2018-11-23T18:42:50.674Z,0.19
2018-11-23T18:52:50.438Z,0.10
2018-11-23T19:02:51.168Z,0.25
2018-11-23T19:12:50.336Z,0.00
2018-11-23T19:22:50.943Z,0.00
2018-11-23T19:32:51.097Z,0.00
2018-11-23T19:42:50.381Z,0.00
2018-11-23T19:52:50.430Z,0.00
2018-11-23T20:02:50.516Z,0.03
2018-11-23T20:12:50.431Z,0.02
2018-11-23T20:22:50.457Z,0.01
2018-11-23T20:32:50.555Z,0.17
2018-11-23T20:42:50.461Z,0.15
2018-11-23T20:52:50.471Z,0.19
2018-11-23T21:02:50.452Z,0.23
2018-11-23T21:12:50.299Z,0.29
2018-11-23T21:22:50.414Z,0.20
2018-11-23T21:32:50.418Z,0.35
2018-11-23T21:42:50.475Z,0.47
2018-11-23T21:52:50.539Z,0.38
2018-11-23T22:02:50.369Z,0.27
2018-11-23T22:12:51.321Z,0.24
2018-11-23T22:22:50.432Z,0.28
2018-11-23T22:32:50.348Z,0.39
2018-11-23T22:42:50.404Z,0.50
2018-11-23T22:52:50.284Z,0.54
2018-11-23T23:02:50.694Z,0.49
2018-11-23T23:12:50.355Z,0.44
2018-11-23T23:22:50.371Z,0.28
2018-11-23T23:32:50.418Z,0.06
2018-11-23T23:42:50.370Z,0.06
2018-11-23T23:52:50.303Z,0.16
